This is the latest recevied weather packets stored in our database for station/object W4MSI. If no packets are shown the sender has not sent any weather packets the latest 1 day(s).
| Time | Temp. | Humidity | Pressure | Rain* | Wind** | Luminosity | Snow |
|---|---|---|---|---|---|---|---|
| 1778022052 | 17.22° C | 83% | 1008 hPa | 8.89 mm | 1.79 m/s, 238° | 22 W/m² | - |
| 1778021749 | 17.78° C | 78% | 1007.8 hPa | 1.78 mm | 3.13 m/s, 232° | 36 W/m² | - |
| 1778021445 | 20° C | 69% | 1007.8 hPa | 0 mm | 4.92 m/s, 200° | 16 W/m² | - |
| 1778021142 | 20.56° C | 63% | 1007.5 hPa | 0 mm | 5.36 m/s, 182° | 21 W/m² | - |
| 1778020840 | 21.11° C | 60% | 1007.2 hPa | 0 mm | 4.02 m/s, 223° | 22 W/m² | - |
| 1778020537 | 21.11° C | 59% | 1007.4 hPa | 0 mm | 2.24 m/s, 199° | 43 W/m² | - |
| 1778020233 | 21.11° C | 59% | 1007.2 hPa | 0 mm | 4.47 m/s, 212° | 74 W/m² | - |
| 1778019929 | 21.11° C | 59% | 1007.2 hPa | 0 mm | 3.13 m/s, 194° | 78 W/m² | - |
| 1778019625 | 21.11° C | 59% | 1007.2 hPa | 0 mm | 6.26 m/s, 155° | 96 W/m² | - |
| 1778019323 | 21.11° C | 59% | 1007.2 hPa | 0 mm | 2.24 m/s, 233° | 107 W/m² | - |
| 1778019019 | 21.67° C | 60% | 1007.2 hPa | 0 mm | 1.79 m/s, 208° | 149 W/m² | - |
| 1778018716 | 21.67° C | 58% | 1007.1 hPa | 0 mm | 3.58 m/s, 224° | 121 W/m² | - |
| 1778018414 | 21.67° C | 59% | 1007.4 hPa | 0 mm | 1.79 m/s, 230° | 172 W/m² | - |
| 1778018112 | 21.67° C | 60% | 1007.4 hPa | 0 mm | 8.05 m/s, 191° | 183 W/m² | - |
| 1778017809 | 21.67° C | 61% | 1007.3 hPa | 0 mm | 4.47 m/s, 208° | 132 W/m² | - |
| 1778017508 | 21.67° C | 61% | 1007.2 hPa | 0 mm | 4.02 m/s, 208° | 181 W/m² | - |
| 1778017204 | 21.67° C | 61% | 1007.3 hPa | 0 mm | 6.26 m/s, 214° | 155 W/m² | - |
| 1778016902 | 21.67° C | 62% | 1007.4 hPa | 0 mm | 2.68 m/s, 242° | 180 W/m² | - |
| 1778016598 | 21.67° C | 63% | 1007.5 hPa | 0 mm | 2.68 m/s, 215° | 141 W/m² | - |
| 1778016295 | 22.22° C | 62% | 1007.3 hPa | 0 mm | 3.58 m/s, 236° | 175 W/m² | - |
| 1778015991 | 22.22° C | 62% | 1007.1 hPa | 0 mm | 1.79 m/s, 216° | 231 W/m² | - |
| 1778015689 | 22.22° C | 62% | 1007.2 hPa | 0 mm | 2.24 m/s, 210° | 217 W/m² | - |
| 1778015385 | 22.22° C | 62% | 1007.2 hPa | 0 mm | 3.58 m/s, 208° | 180 W/m² | - |
| 1778015082 | 21.67° C | 64% | 1007.6 hPa | 0 mm | 1.79 m/s, 229° | 236 W/m² | - |
| 1778014779 | 21.67° C | 63% | 1007.6 hPa | 0 mm | 0.89 m/s, 188° | 124 W/m² | - |
* Rain latest hour (hover to see other rain measurements)
** Current wind speed in m/s (hover to see current wind gust speed)